sensor_id;sensor_type;location;lat;lon;timestamp;pressure;altitude;pressure_sealevel;temperature;humidity
37390;BME280;39679;49.000;8.390;2022-07-29T00:02:14;99906.63;;;26.13;44.60
37390;BME280;39679;49.000;8.390;2022-07-29T00:07:14;99899.41;;;26.13;44.72
37390;BME280;39679;49.000;8.390;2022-07-29T00:12:15;99900.41;;;26.12;44.63
37390;BME280;39679;49.000;8.390;2022-07-29T00:17:15;99895.91;;;26.13;44.73
37390;BME280;39679;49.000;8.390;2022-07-29T00:22:15;99888.78;;;26.11;44.92
37390;BME280;39679;49.000;8.390;2022-07-29T00:27:17;99893.28;;;26.11;44.93
37390;BME280;39679;49.000;8.390;2022-07-29T00:32:17;99895.97;;;26.11;45.04
37390;BME280;39679;49.000;8.390;2022-07-29T00:37:17;99894.25;;;26.10;45.05
37390;BME280;39679;49.000;8.390;2022-07-29T00:42:18;99889.66;;;26.12;45.16
37390;BME280;39679;49.000;8.390;2022-07-29T00:47:18;99876.22;;;26.12;45.83
37390;BME280;39679;49.000;8.390;2022-07-29T00:52:20;99878.16;;;26.10;45.77
37390;BME280;39679;49.000;8.390;2022-07-29T00:57:20;99875.25;;;26.13;45.71
37390;BME280;39679;49.000;8.390;2022-07-29T01:02:20;99883.13;;;26.16;44.87
37390;BME280;39679;49.000;8.390;2022-07-29T01:07:21;99868.06;;;25.40;40.80
37390;BME280;39679;49.000;8.390;2022-07-29T01:12:24;99868.22;;;24.61;39.14
37390;BME280;39679;49.000;8.390;2022-07-29T01:33:03;99861.25;;;23.24;36.50
37390;BME280;39679;49.000;8.390;2022-07-29T01:38:20;99860.50;;;23.04;36.00
37390;BME280;39679;49.000;8.390;2022-07-29T01:43:48;99853.31;;;22.87;35.02
37390;BME280;39679;49.000;8.390;2022-07-29T01:48:53;99868.34;;;22.71;35.12
37390;BME280;39679;49.000;8.390;2022-07-29T01:54:08;99873.16;;;22.81;35.52
37390;BME280;39679;49.000;8.390;2022-07-29T01:59:11;99871.69;;;23.29;35.69
37390;BME280;39679;49.000;8.390;2022-07-29T02:04:12;99874.16;;;23.67;35.99
37390;BME280;39679;49.000;8.390;2022-07-29T02:09:14;99883.19;;;23.99;36.36
37390;BME280;39679;49.000;8.390;2022-07-29T02:14:18;99886.91;;;24.29;36.92
37390;BME280;39679;49.000;8.390;2022-07-29T02:19:21;99886.78;;;24.48;37.23
37390;BME280;39679;49.000;8.390;2022-07-29T02:24:22;99884.09;;;24.64;37.67
37390;BME280;39679;49.000;8.390;2022-07-29T02:29:26;99879.72;;;24.78;38.00
37390;BME280;39679;49.000;8.390;2022-07-29T02:34:28;99881.81;;;24.89;38.32
37390;BME280;39679;49.000;8.390;2022-07-29T02:39:29;99864.25;;;24.99;38.54
37390;BME280;39679;49.000;8.390;2022-07-29T02:44:30;99867.44;;;25.05;38.69
37390;BME280;39679;49.000;8.390;2022-07-29T02:54:37;99871.16;;;25.18;38.86
37390;BME280;39679;49.000;8.390;2022-07-29T02:59:41;99874.41;;;25.23;39.19
37390;BME280;39679;49.000;8.390;2022-07-29T03:04:43;99878.53;;;25.29;39.29
37390;BME280;39679;49.000;8.390;2022-07-29T03:09:45;99887.31;;;25.32;38.98
37390;BME280;39679;49.000;8.390;2022-07-29T03:14:46;99885.19;;;25.38;39.25
37390;BME280;39679;49.000;8.390;2022-07-29T03:19:47;99892.19;;;25.40;39.24
37390;BME280;39679;49.000;8.390;2022-07-29T03:24:48;99893.78;;;25.44;39.64
37390;BME280;39679;49.000;8.390;2022-07-29T03:29:48;99891.78;;;25.48;39.67
37390;BME280;39679;49.000;8.390;2022-07-29T03:34:49;99885.38;;;25.50;39.91
37390;BME280;39679;49.000;8.390;2022-07-29T03:39:49;99885.28;;;25.52;39.72
37390;BME280;39679;49.000;8.390;2022-07-29T03:44:52;99888.66;;;25.55;39.82
37390;BME280;39679;49.000;8.390;2022-07-29T03:49:57;99901.97;;;25.57;40.15
37390;BME280;39679;49.000;8.390;2022-07-29T03:54:58;99898.25;;;25.59;40.14
37390;BME280;39679;49.000;8.390;2022-07-29T04:00:00;99899.88;;;25.62;40.17
37390;BME280;39679;49.000;8.390;2022-07-29T04:05:01;99905.16;;;25.63;40.26
37390;BME280;39679;49.000;8.390;2022-07-29T04:10:02;99901.41;;;25.66;40.37
37390;BME280;39679;49.000;8.390;2022-07-29T04:15:06;99903.16;;;25.67;40.73
37390;BME280;39679;49.000;8.390;2022-07-29T04:20:06;99903.94;;;25.69;40.64
37390;BME280;39679;49.000;8.390;2022-07-29T04:25:07;99914.56;;;25.70;40.76
37390;BME280;39679;49.000;8.390;2022-07-29T04:30:08;99910.94;;;25.71;40.96
37390;BME280;39679;49.000;8.390;2022-07-29T04:35:09;99913.53;;;25.73;41.23
37390;BME280;39679;49.000;8.390;2022-07-29T04:40:09;99921.47;;;25.74;41.44
37390;BME280;39679;49.000;8.390;2022-07-29T04:45:10;99930.41;;;25.75;41.43
37390;BME280;39679;49.000;8.390;2022-07-29T04:50:10;99922.25;;;25.76;41.49
37390;BME280;39679;49.000;8.390;2022-07-29T04:55:11;99927.63;;;25.76;41.89
37390;BME280;39679;49.000;8.390;2022-07-29T05:00:12;99931.94;;;25.79;41.91
37390;BME280;39679;49.000;8.390;2022-07-29T05:05:12;99934.53;;;25.80;42.01
37390;BME280;39679;49.000;8.390;2022-07-29T05:10:13;99934.53;;;25.80;42.03
37390;BME280;39679;49.000;8.390;2022-07-29T05:15:13;99937.13;;;25.82;42.36
37390;BME280;39679;49.000;8.390;2022-07-29T05:20:14;99944.22;;;25.83;42.16
37390;BME280;39679;49.000;8.390;2022-07-29T05:25:15;99934.34;;;25.83;42.48
37390;BME280;39679;49.000;8.390;2022-07-29T05:30:15;99942.41;;;25.83;42.49
37390;BME280;39679;49.000;8.390;2022-07-29T05:35:16;99950.38;;;25.85;42.62
37390;BME280;39679;49.000;8.390;2022-07-29T05:40:17;99952.09;;;25.86;42.43
37390;BME280;39679;49.000;8.390;2022-07-29T05:45:17;99964.56;;;25.87;42.63
37390;BME280;39679;49.000;8.390;2022-07-29T05:50:20;99964.56;;;25.87;42.71
37390;BME280;39679;49.000;8.390;2022-07-29T05:55:21;99979.72;;;25.88;42.90
37390;BME280;39679;49.000;8.390;2022-07-29T06:00:21;99974.34;;;25.88;42.95
37390;BME280;39679;49.000;8.390;2022-07-29T06:05:22;99975.19;;;25.88;42.89
37390;BME280;39679;49.000;8.390;2022-07-29T06:10:22;99984.13;;;25.89;42.81
37390;BME280;39679;49.000;8.390;2022-07-29T06:15:23;99989.38;;;25.90;42.73
37390;BME280;39679;49.000;8.390;2022-07-29T06:20:23;99999.28;;;25.90;43.05
37390;BME280;39679;49.000;8.390;2022-07-29T06:25:31;99996.59;;;25.90;42.89
37390;BME280;39679;49.000;8.390;2022-07-29T06:30:38;99999.19;;;25.91;43.21
37390;BME280;39679;49.000;8.390;2022-07-29T06:35:39;100007.25;;;25.91;43.03
37390;BME280;39679;49.000;8.390;2022-07-29T06:40:44;100005.44;;;25.92;43.05
37390;BME280;39679;49.000;8.390;2022-07-29T06:45:45;100005.44;;;25.92;42.90
37390;BME280;39679;49.000;8.390;2022-07-29T06:50:52;100002.75;;;25.92;43.11
37390;BME280;39679;49.000;8.390;2022-07-29T06:55:57;100016.19;;;25.92;42.90
37390;BME280;39679;49.000;8.390;2022-07-29T07:01:03;100016.94;;;25.94;43.04
37390;BME280;39679;49.000;8.390;2022-07-29T07:06:13;100008.97;;;25.92;43.05
37390;BME280;39679;49.000;8.390;2022-07-29T07:11:29;100014.25;;;25.94;43.08
37390;BME280;39679;49.000;8.390;2022-07-29T07:16:31;100011.66;;;25.92;42.77
37390;BME280;39679;49.000;8.390;2022-07-29T07:21:35;100018.75;;;25.93;43.24
37390;BME280;39679;49.000;8.390;2022-07-29T07:26:36;100023.16;;;25.94;42.79
37390;BME280;39679;49.000;8.390;2022-07-29T07:31:53;100025.84;;;25.94;43.10
37390;BME280;39679;49.000;8.390;2022-07-29T07:36:54;100044.56;;;25.96;42.98
37390;BME280;39679;49.000;8.390;2022-07-29T07:41:55;100037.47;;;25.95;42.97
37390;BME280;39679;49.000;8.390;2022-07-29T07:46:56;100038.31;;;25.95;43.25
37390;BME280;39679;49.000;8.390;2022-07-29T07:51:56;100029.31;;;25.96;43.26
37390;BME280;39679;49.000;8.390;2022-07-29T07:56:58;100031.16;;;25.96;43.04
37390;BME280;39679;49.000;8.390;2022-07-29T08:02:02;100031.16;;;25.96;43.18
37390;BME280;39679;49.000;8.390;2022-07-29T08:07:07;100039.09;;;25.97;43.36
37390;BME280;39679;49.000;8.390;2022-07-29T08:12:09;100040.91;;;25.97;43.05
37390;BME280;39679;49.000;8.390;2022-07-29T08:17:13;100035.53;;;25.97;43.14
37390;BME280;39679;49.000;8.390;2022-07-29T08:22:15;100034.59;;;25.98;43.09
37390;BME280;39679;49.000;8.390;2022-07-29T08:27:17;100045.34;;;25.98;43.26
37390;BME280;39679;49.000;8.390;2022-07-29T08:32:18;100053.41;;;25.98;42.89
37390;BME280;39679;49.000;8.390;2022-07-29T08:37:27;100050.63;;;25.99;42.70
37390;BME280;39679;49.000;8.390;2022-07-29T08:42:27;100057.81;;;25.99;42.60
37390;BME280;39679;49.000;8.390;2022-07-29T08:47:28;100040.81;;;25.98;42.46
37390;BME280;39679;49.000;8.390;2022-07-29T08:52:33;100056.09;;;25.98;42.56
37390;BME280;39679;49.000;8.390;2022-07-29T08:57:38;100049.75;;;25.99;42.44
37390;BME280;39679;49.000;8.390;2022-07-29T09:02:42;100053.41;;;25.98;42.56
37390;BME280;39679;49.000;8.390;2022-07-29T09:07:46;100037.28;;;25.98;42.53
37390;BME280;39679;49.000;8.390;2022-07-29T09:12:54;100040.81;;;25.98;42.35
37390;BME280;39679;49.000;8.390;2022-07-29T09:17:56;100046.28;;;25.97;42.11
37390;BME280;39679;49.000;8.390;2022-07-29T09:23:07;100039.97;;;25.98;42.31
37390;BME280;39679;49.000;8.390;2022-07-29T09:28:15;100044.56;;;25.96;41.79
37390;BME280;39679;49.000;8.390;2022-07-29T09:33:17;100033.84;;;25.96;41.70
37390;BME280;39679;49.000;8.390;2022-07-29T09:38:17;100037.34;;;25.96;41.96
37390;BME280;39679;49.000;8.390;2022-07-29T09:43:18;100021.81;;;25.87;41.60
37390;BME280;39679;49.000;8.390;2022-07-29T09:48:21;100023.56;;;25.73;41.47
37390;BME280;39679;49.000;8.390;2022-07-29T09:53:35;100030.94;;;25.69;41.34
37390;BME280;39679;49.000;8.390;2022-07-29T09:58:35;100031.00;;;25.68;41.63
37390;BME280;39679;49.000;8.390;2022-07-29T10:03:53;100046.94;;;25.71;41.50
37390;BME280;39679;49.000;8.390;2022-07-29T10:08:55;100030.94;;;25.69;41.53
37390;BME280;39679;49.000;8.390;2022-07-29T10:14:09;100029.38;;;25.65;41.79
37390;BME280;39679;49.000;8.390;2022-07-29T10:19:13;100027.84;;;25.61;41.50
37390;BME280;39679;49.000;8.390;2022-07-29T10:24:14;100019.78;;;25.61;41.51
37390;BME280;39679;49.000;8.390;2022-07-29T10:29:14;100012.22;;;25.68;41.09
37390;BME280;39679;49.000;8.390;2022-07-29T10:34:36;99996.88;;;25.70;40.42
37390;BME280;39679;49.000;8.390;2022-07-29T10:40:15;99999.31;;;25.74;39.58
37390;BME280;39679;49.000;8.390;2022-07-29T10:45:17;99993.78;;;25.77;40.05
37390;BME280;39679;49.000;8.390;2022-07-29T10:50:18;99989.09;;;25.81;39.98
37390;BME280;39679;49.000;8.390;2022-07-29T11:00:33;99995.91;;;25.86;39.17
37390;BME280;39679;49.000;8.390;2022-07-29T11:05:53;99998.41;;;25.89;39.44
37390;BME280;39679;49.000;8.390;2022-07-29T11:16:22;99985.66;;;25.93;39.65
37390;BME280;39679;49.000;8.390;2022-07-29T11:21:35;99987.31;;;25.95;39.63
37390;BME280;39679;49.000;8.390;2022-07-29T11:26:35;99984.53;;;25.97;39.41
37390;BME280;39679;49.000;8.390;2022-07-29T11:31:42;99987.81;;;26.02;38.92
37390;BME280;39679;49.000;8.390;2022-07-29T11:47:20;99998.22;;;26.08;39.15
37390;BME280;39679;49.000;8.390;2022-07-29T11:52:20;99983.66;;;26.12;39.01
37390;BME280;39679;49.000;8.390;2022-07-29T11:57:21;99982.88;;;26.10;39.12
37390;BME280;39679;49.000;8.390;2022-07-29T12:02:21;99986.34;;;26.12;38.94
37390;BME280;39679;49.000;8.390;2022-07-29T12:07:33;99992.59;;;26.13;38.74
37390;BME280;39679;49.000;8.390;2022-07-29T12:12:34;99997.94;;;26.13;38.78
37390;BME280;39679;49.000;8.390;2022-07-29T12:17:34;99994.28;;;26.13;38.67
37390;BME280;39679;49.000;8.390;2022-07-29T12:22:38;99984.53;;;26.13;38.71
37390;BME280;39679;49.000;8.390;2022-07-29T12:27:38;99995.06;;;26.16;38.09
37390;BME280;39679;49.000;8.390;2022-07-29T12:32:47;99992.28;;;26.17;37.86
37390;BME280;39679;49.000;8.390;2022-07-29T12:37:47;99983.28;;;26.18;37.78
37390;BME280;39679;49.000;8.390;2022-07-29T12:43:07;99977.81;;;26.20;37.42
37390;BME280;39679;49.000;8.390;2022-07-29T12:48:08;99980.38;;;26.21;37.98
37390;BME280;39679;49.000;8.390;2022-07-29T12:53:12;99985.69;;;26.23;37.26
37390;BME280;39679;49.000;8.390;2022-07-29T12:58:13;99982.91;;;26.24;37.26
37390;BME280;39679;49.000;8.390;2022-07-29T13:03:13;99985.38;;;26.27;36.92
37390;BME280;39679;49.000;8.390;2022-07-29T13:08:15;99995.84;;;26.32;36.68
37390;BME280;39679;49.000;8.390;2022-07-29T13:13:15;99986.94;;;26.31;37.08
37390;BME280;39679;49.000;8.390;2022-07-29T13:18:30;99999.41;;;26.32;36.90
37390;BME280;39679;49.000;8.390;2022-07-29T13:23:30;100005.56;;;26.34;37.31
37390;BME280;39679;49.000;8.390;2022-07-29T13:28:31;100009.69;;;26.40;36.52
37390;BME280;39679;49.000;8.390;2022-07-29T13:33:31;100016.88;;;26.39;36.22
37390;BME280;39679;49.000;8.390;2022-07-29T13:38:31;100006.34;;;26.36;36.15
37390;BME280;39679;49.000;8.390;2022-07-29T13:43:32;100010.94;;;26.34;36.38
37390;BME280;39679;49.000;8.390;2022-07-29T13:48:32;100011.81;;;26.35;36.69
37390;BME280;39679;49.000;8.390;2022-07-29T13:53:32;99996.47;;;26.37;35.85
37390;BME280;39679;49.000;8.390;2022-07-29T13:58:33;99999.16;;;26.37;35.79
37390;BME280;39679;49.000;8.390;2022-07-29T14:03:33;99983.84;;;26.37;35.71
37390;BME280;39679;49.000;8.390;2022-07-29T14:08:34;99994.72;;;26.36;35.98
37390;BME280;39679;49.000;8.390;2022-07-29T14:13:34;99990.97;;;26.38;35.53
37390;BME280;39679;49.000;8.390;2022-07-29T14:18:35;99987.41;;;26.38;35.46
37390;BME280;39679;49.000;8.390;2022-07-29T14:23:36;99979.38;;;26.38;35.39
37390;BME280;39679;49.000;8.390;2022-07-29T14:28:37;99980.91;;;26.42;34.79
37390;BME280;39679;49.000;8.390;2022-07-29T14:33:37;99978.97;;;26.44;34.59
37390;BME280;39679;49.000;8.390;2022-07-29T14:38:37;99988.13;;;26.41;34.53
37390;BME280;39679;49.000;8.390;2022-07-29T14:43:38;99984.47;;;26.42;34.93
37390;BME280;39679;49.000;8.390;2022-07-29T14:48:38;99986.38;;;26.40;34.83
37390;BME280;39679;49.000;8.390;2022-07-29T14:53:38;99979.25;;;26.39;34.87
37390;BME280;39679;49.000;8.390;2022-07-29T14:58:39;99974.47;;;26.44;33.97
37390;BME280;39679;49.000;8.390;2022-07-29T15:03:39;99977.06;;;26.46;34.14
37390;BME280;39679;49.000;8.390;2022-07-29T15:08:40;99984.19;;;26.47;34.17
37390;BME280;39679;49.000;8.390;2022-07-29T15:13:40;99968.06;;;26.47;34.27
37390;BME280;39679;49.000;8.390;2022-07-29T15:18:40;99985.91;;;26.48;33.78
37390;BME280;39679;49.000;8.390;2022-07-29T15:23:41;99973.31;;;26.48;33.43
37390;BME280;39679;49.000;8.390;2022-07-29T15:28:41;99975.06;;;26.49;33.72
37390;BME280;39679;49.000;8.390;2022-07-29T15:33:42;99971.50;;;26.49;33.51
37390;BME280;39679;49.000;8.390;2022-07-29T15:38:42;99970.63;;;26.48;33.24
37390;BME280;39679;49.000;8.390;2022-07-29T15:43:46;99971.50;;;26.49;33.23
37390;BME280;39679;49.000;8.390;2022-07-29T15:48:46;99969.69;;;26.49;32.69
37390;BME280;39679;49.000;8.390;2022-07-29T15:53:46;99967.69;;;26.53;32.43
37390;BME280;39679;49.000;8.390;2022-07-29T15:58:47;99972.94;;;26.54;33.16
37390;BME280;39679;49.000;8.390;2022-07-29T16:03:47;99965.75;;;26.55;32.36
37390;BME280;39679;49.000;8.390;2022-07-29T16:08:48;99963.06;;;26.55;32.22
37390;BME280;39679;49.000;8.390;2022-07-29T16:13:48;99958.63;;;26.54;32.58
37390;BME280;39679;49.000;8.390;2022-07-29T16:18:48;99955.09;;;26.53;32.46
37390;BME280;39679;49.000;8.390;2022-07-29T16:23:49;99950.56;;;26.54;32.62
37390;BME280;39679;49.000;8.390;2022-07-29T16:28:49;99954.25;;;26.53;32.99
37390;BME280;39679;49.000;8.390;2022-07-29T16:33:51;99944.44;;;26.52;32.82
37390;BME280;39679;49.000;8.390;2022-07-29T16:38:51;99939.06;;;26.52;33.14
37390;BME280;39679;49.000;8.390;2022-07-29T16:43:51;99955.09;;;26.53;33.27
37390;BME280;39679;49.000;8.390;2022-07-29T16:48:52;99949.72;;;26.53;33.38
37390;BME280;39679;49.000;8.390;2022-07-29T16:53:52;99944.34;;;26.53;33.56
37390;BME280;39679;49.000;8.390;2022-07-29T16:58:53;99934.16;;;26.58;33.24
37390;BME280;39679;49.000;8.390;2022-07-29T17:03:56;99940.31;;;26.60;33.61
37390;BME280;39679;49.000;8.390;2022-07-29T17:08:56;99934.00;;;26.61;33.76
37390;BME280;39679;49.000;8.390;2022-07-29T17:13:57;99951.53;;;26.67;33.56
37390;BME280;39679;49.000;8.390;2022-07-29T17:18:57;99948.84;;;26.67;33.63
37390;BME280;39679;49.000;8.390;2022-07-29T17:23:58;99949.78;;;26.66;33.88
37390;BME280;39679;49.000;8.390;2022-07-29T17:28:59;99950.78;;;26.65;33.83
37390;BME280;39679;49.000;8.390;2022-07-29T17:34:02;99953.34;;;26.66;33.82
37390;BME280;39679;49.000;8.390;2022-07-29T17:39:07;99955.09;;;26.67;33.28
37390;BME280;39679;49.000;8.390;2022-07-29T17:44:08;99958.56;;;26.69;32.51
37390;BME280;39679;49.000;8.390;2022-07-29T17:49:09;99962.03;;;26.71;31.68
37390;BME280;39679;49.000;8.390;2022-07-29T17:54:11;99968.19;;;26.73;30.97
37390;BME280;39679;49.000;8.390;2022-07-29T17:59:13;99971.75;;;26.74;31.64
37390;BME280;39679;49.000;8.390;2022-07-29T18:04:14;99973.63;;;26.72;32.11
37390;BME280;39679;49.000;8.390;2022-07-29T18:09:15;99979.94;;;26.71;32.89
37390;BME280;39679;49.000;8.390;2022-07-29T18:14:18;99988.97;;;26.70;33.33
37390;BME280;39679;49.000;8.390;2022-07-29T18:19:22;99985.44;;;26.69;33.80
37390;BME280;39679;49.000;8.390;2022-07-29T18:24:23;99998.88;;;26.69;34.03
37390;BME280;39679;49.000;8.390;2022-07-29T18:29:23;99998.00;;;26.69;33.99
37390;BME280;39679;49.000;8.390;2022-07-29T18:34:24;100002.63;;;26.67;34.18
37390;BME280;39679;49.000;8.390;2022-07-29T18:39:24;100009.81;;;26.66;34.23
37390;BME280;39679;49.000;8.390;2022-07-29T18:44:25;100011.72;;;26.64;34.52
37390;BME280;39679;49.000;8.390;2022-07-29T18:49:26;100016.34;;;26.62;34.86
37390;BME280;39679;49.000;8.390;2022-07-29T18:54:28;100016.53;;;26.59;35.24
37390;BME280;39679;49.000;8.390;2022-07-29T18:59:28;100014.91;;;26.57;35.36
37390;BME280;39679;49.000;8.390;2022-07-29T19:04:29;100016.91;;;26.53;35.70
37390;BME280;39679;49.000;8.390;2022-07-29T19:09:29;100027.75;;;26.52;35.79
37390;BME280;39679;49.000;8.390;2022-07-29T19:14:30;100029.38;;;26.54;35.91
37390;BME280;39679;49.000;8.390;2022-07-29T19:19:30;100036.56;;;26.54;35.92
37390;BME280;39679;49.000;8.390;2022-07-29T19:24:31;100031.50;;;26.49;36.44
37390;BME280;39679;49.000;8.390;2022-07-29T19:29:31;100048.66;;;26.47;36.66
37390;BME280;39679;49.000;8.390;2022-07-29T19:34:32;100051.25;;;26.48;36.92
37390;BME280;39679;49.000;8.390;2022-07-29T19:39:32;100060.06;;;26.36;37.43
37390;BME280;39679;49.000;8.390;2022-07-29T19:44:32;100061.22;;;26.32;37.67
37390;BME280;39679;49.000;8.390;2022-07-29T19:49:33;100064.84;;;26.31;37.58
37390;BME280;39679;49.000;8.390;2022-07-29T19:54:33;100060.22;;;26.33;37.45
37390;BME280;39679;49.000;8.390;2022-07-29T19:59:33;100067.34;;;26.34;37.59
37390;BME280;39679;49.000;8.390;2022-07-29T20:04:34;100075.31;;;26.36;37.33
37390;BME280;39679;49.000;8.390;2022-07-29T20:09:35;100067.53;;;26.31;37.75
37390;BME280;39679;49.000;8.390;2022-07-29T20:14:35;100070.03;;;26.34;37.41
37390;BME280;39679;49.000;8.390;2022-07-29T20:19:36;100070.91;;;26.35;37.49
37390;BME280;39679;49.000;8.390;2022-07-29T20:24:37;100067.47;;;26.33;37.54
37390;BME280;39679;49.000;8.390;2022-07-29T20:29:38;100070.22;;;26.31;37.50
37390;BME280;39679;49.000;8.390;2022-07-29T20:34:39;100071.09;;;26.32;37.60
37390;BME280;39679;49.000;8.390;2022-07-29T20:39:40;100072.13;;;26.29;37.48
37390;BME280;39679;49.000;8.390;2022-07-29T20:44:40;100075.09;;;26.25;37.66
37390;BME280;39679;49.000;8.390;2022-07-29T20:49:41;100100.00;;;26.13;37.71
37390;BME280;39679;49.000;8.390;2022-07-29T20:54:41;100107.41;;;26.23;37.79
37390;BME280;39679;49.000;8.390;2022-07-29T20:59:42;100102.91;;;26.24;37.65
37390;BME280;39679;49.000;8.390;2022-07-29T21:04:45;100107.34;;;26.09;38.06
37390;BME280;39679;49.000;8.390;2022-07-29T21:09:46;100114.28;;;25.97;38.35
37390;BME280;39679;49.000;8.390;2022-07-29T21:14:47;100115.06;;;26.15;38.17
37390;BME280;39679;49.000;8.390;2022-07-29T21:19:50;100128.06;;;26.23;38.23
37390;BME280;39679;49.000;8.390;2022-07-29T21:24:54;100131.44;;;26.26;38.54
37390;BME280;39679;49.000;8.390;2022-07-29T21:30:03;100137.38;;;26.31;38.55
37390;BME280;39679;49.000;8.390;2022-07-29T21:35:05;100137.09;;;26.36;38.64
37390;BME280;39679;49.000;8.390;2022-07-29T21:40:07;100145.84;;;26.39;38.83
37390;BME280;39679;49.000;8.390;2022-07-29T21:45:08;100147.44;;;26.43;38.95
37390;BME280;39679;49.000;8.390;2022-07-29T21:50:08;100145.41;;;26.47;39.28
37390;BME280;39679;49.000;8.390;2022-07-29T21:55:09;100150.69;;;26.48;39.03
37390;BME280;39679;49.000;8.390;2022-07-29T22:00:11;100158.59;;;26.51;39.31
37390;BME280;39679;49.000;8.390;2022-07-29T22:05:12;100173.56;;;26.55;39.36
37390;BME280;39679;49.000;8.390;2022-07-29T22:10:14;100186.81;;;26.58;39.41
37390;BME280;39679;49.000;8.390;2022-07-29T22:15:14;100190.06;;;26.02;37.60
37390;BME280;39679;49.000;8.390;2022-07-29T22:20:15;100191.19;;;25.02;35.92
37390;BME280;39679;49.000;8.390;2022-07-29T22:25:15;100200.09;;;24.32;35.49
37390;BME280;39679;49.000;8.390;2022-07-29T22:30:16;100203.19;;;23.88;34.67
37390;BME280;39679;49.000;8.390;2022-07-29T22:35:16;100207.72;;;24.04;35.66
37390;BME280;39679;49.000;8.390;2022-07-29T22:40:17;100207.00;;;24.55;35.28
37390;BME280;39679;49.000;8.390;2022-07-29T22:45:17;100214.75;;;24.95;35.66
37390;BME280;39679;49.000;8.390;2022-07-29T22:50:17;100224.72;;;25.26;35.59
37390;BME280;39679;49.000;8.390;2022-07-29T22:55:18;100236.06;;;25.48;36.02
37390;BME280;39679;49.000;8.390;2022-07-29T23:00:19;100246.00;;;25.63;35.83
37390;BME280;39679;49.000;8.390;2022-07-29T23:05:21;100251.47;;;25.77;36.09
37390;BME280;39679;49.000;8.390;2022-07-29T23:10:22;100246.44;;;25.87;36.18
37390;BME280;39679;49.000;8.390;2022-07-29T23:15:24;100240.59;;;25.96;36.57
37390;BME280;39679;49.000;8.390;2022-07-29T23:20:25;100250.00;;;26.03;36.59
37390;BME280;39679;49.000;8.390;2022-07-29T23:25:25;100256.81;;;26.10;36.53
37390;BME280;39679;49.000;8.390;2022-07-29T23:30:26;100258.28;;;26.16;36.64
37390;BME280;39679;49.000;8.390;2022-07-29T23:35:27;100250.91;;;26.19;37.04
37390;BME280;39679;49.000;8.390;2022-07-29T23:40:27;100265.06;;;26.23;37.05
37390;BME280;39679;49.000;8.390;2022-07-29T23:45:28;100265.75;;;26.26;37.12
37390;BME280;39679;49.000;8.390;2022-07-29T23:50:28;100268.19;;;26.31;37.17
37390;BME280;39679;49.000;8.390;2022-07-29T23:55:28;100262.59;;;26.34;37.34
